Armuchee, Georgia
Current Conditions -  °F | °C
As of 12:53 PM on Thursday 30 Oct 2014 (Local Time) from KRMG Reporting Station
Clear Clear  
Wind Chill: 62°   Ceiling: Unl
Heat Index: 62°   Visibility: 10mi
Dew Point: 42°   Wind: 3mph
Humidity: 48%   Direction: 260°W
Pressure: 30.09"   Gusts: NA
Location:  34.39°N, 85.18°W
Report Text: KRMG 301653Z AUTO 26003KT 10SM CLR 17/06 A3009 RMK AO2 SLP184 T01670056
Loading
Personal Weather Stations






























Interactive Weather Map New forecast layout! Learn more

10-Day Weather Forecast

Advertisements
Track Severe Weather on mobile